createdAt,value
2018-06-15T00:00:40.969Z,17.40
2018-06-15T00:03:43.900Z,17.40
2018-06-15T00:06:47.016Z,17.30
2018-06-15T00:09:49.959Z,17.30
2018-06-15T00:12:52.916Z,17.30
2018-06-15T00:15:55.811Z,17.30
2018-06-15T00:18:58.726Z,17.30
2018-06-15T00:22:01.629Z,17.30
2018-06-15T00:25:04.561Z,17.30
2018-06-15T00:28:07.466Z,17.20
2018-06-15T00:31:10.390Z,17.20
2018-06-15T00:34:13.381Z,17.20
2018-06-15T00:40:19.265Z,17.30
2018-06-15T00:43:22.161Z,17.30
2018-06-15T00:46:25.088Z,17.30
2018-06-15T00:49:27.993Z,17.30
2018-06-15T00:52:30.940Z,17.30
2018-06-15T00:55:33.872Z,17.40
2018-06-15T00:58:36.804Z,17.30
2018-06-15T01:01:39.770Z,17.30
2018-06-15T01:04:42.693Z,17.30
2018-06-15T01:07:45.586Z,17.30
2018-06-15T01:10:48.512Z,17.30
2018-06-15T01:13:51.414Z,17.30
2018-06-15T01:16:54.349Z,17.30
2018-06-15T01:19:57.967Z,17.30
2018-06-15T01:23:00.888Z,17.30
2018-06-15T01:26:03.833Z,17.30
2018-06-15T01:29:06.767Z,17.30
2018-06-15T01:32:09.655Z,17.20
2018-06-15T01:35:12.566Z,17.20
2018-06-15T01:38:15.525Z,17.20
2018-06-15T01:41:18.441Z,17.30
2018-06-15T01:44:21.310Z,17.20
2018-06-15T01:47:24.233Z,17.20
2018-06-15T01:53:36.678Z,17.30
2018-06-15T01:56:39.566Z,17.20
2018-06-15T01:59:42.482Z,17.30
2018-06-15T02:02:45.419Z,17.20
2018-06-15T02:08:51.198Z,17.30
2018-06-15T02:11:54.108Z,17.30
2018-06-15T02:14:57.033Z,17.30
2018-06-15T02:17:59.942Z,17.30
2018-06-15T02:21:02.847Z,17.30
2018-06-15T02:24:05.804Z,17.20
2018-06-15T02:27:09.393Z,17.20
2018-06-15T02:30:12.309Z,17.20
2018-06-15T02:33:15.213Z,17.20
2018-06-15T02:36:18.232Z,17.20
2018-06-15T02:39:21.127Z,17.20
2018-06-15T02:42:24.035Z,17.20
2018-06-15T02:45:26.956Z,17.20
2018-06-15T02:48:29.843Z,17.20
2018-06-15T02:51:32.791Z,17.20
2018-06-15T02:54:35.708Z,17.20
2018-06-15T02:57:38.614Z,17.20
2018-06-15T03:00:41.556Z,17.30
2018-06-15T03:03:44.736Z,17.30
2018-06-15T03:06:47.665Z,17.30
2018-06-15T03:09:50.593Z,17.30
2018-06-15T03:12:53.550Z,17.20
2018-06-15T03:15:56.461Z,17.20
2018-06-15T03:18:59.384Z,17.20
2018-06-15T03:22:04.308Z,17.20
2018-06-15T03:25:07.411Z,17.20
2018-06-15T03:28:10.281Z,17.20
2018-06-15T03:31:15.815Z,17.20
2018-06-15T03:34:19.565Z,17.10
2018-06-15T03:37:22.462Z,17.20
2018-06-15T03:40:25.376Z,17.20
2018-06-15T03:43:28.330Z,17.20
2018-06-15T03:46:31.307Z,17.20
2018-06-15T03:49:34.199Z,17.20
2018-06-15T03:52:37.094Z,17.10
2018-06-15T03:55:40.056Z,17.10
2018-06-15T03:58:42.960Z,17.10
2018-06-15T04:01:45.884Z,17.10
2018-06-15T04:04:48.774Z,17.20
2018-06-15T04:07:51.718Z,17.10
2018-06-15T04:10:54.620Z,17.20
2018-06-15T04:13:57.513Z,17.20
2018-06-15T04:17:00.404Z,17.20
2018-06-15T04:20:03.372Z,17.20
2018-06-15T04:23:06.588Z,17.30
2018-06-15T04:26:09.448Z,17.30
2018-06-15T04:29:12.368Z,17.30
2018-06-15T04:32:15.287Z,17.30
2018-06-15T04:35:18.180Z,17.30
2018-06-15T04:38:21.119Z,17.30
2018-06-15T04:41:24.061Z,17.30
2018-06-15T04:44:26.954Z,17.30
2018-06-15T04:47:29.833Z,17.20
2018-06-15T04:50:32.727Z,17.30
2018-06-15T04:53:35.608Z,17.20
2018-06-15T04:56:38.613Z,17.30
2018-06-15T04:59:41.523Z,17.40
2018-06-15T05:02:44.414Z,17.40
2018-06-15T05:05:47.324Z,17.40
2018-06-15T05:11:53.053Z,17.40
2018-06-15T05:14:55.948Z,17.40
2018-06-15T05:17:58.845Z,17.40
2018-06-15T05:21:03.685Z,17.50
2018-06-15T05:24:06.665Z,17.50
2018-06-15T05:27:09.845Z,17.50
2018-06-15T05:30:12.733Z,17.50
2018-06-15T05:33:15.659Z,17.50
2018-06-15T05:36:18.641Z,17.60
2018-06-15T05:39:21.641Z,17.50
2018-06-15T05:42:24.563Z,17.60
2018-06-15T05:45:27.512Z,17.60
2018-06-15T05:48:30.466Z,17.60
2018-06-15T05:51:33.452Z,17.60
2018-06-15T05:54:36.377Z,17.70
2018-06-15T05:57:39.279Z,17.60
2018-06-15T06:00:42.297Z,17.60
2018-06-15T06:03:45.355Z,17.50
2018-06-15T06:06:48.330Z,17.50
2018-06-15T06:09:51.265Z,17.50
2018-06-15T06:12:54.196Z,17.50
2018-06-15T06:15:57.169Z,17.50
2018-06-15T06:19:00.064Z,17.60
2018-06-15T06:22:03.099Z,17.60
2018-06-15T06:25:06.218Z,17.60
2018-06-15T06:28:09.247Z,17.70
2018-06-15T06:31:12.165Z,17.70
2018-06-15T06:34:15.096Z,17.70
2018-06-15T06:37:18.021Z,17.70
2018-06-15T06:40:21.003Z,17.80
2018-06-15T06:43:24.313Z,17.70
2018-06-15T06:46:27.309Z,17.70
2018-06-15T06:49:30.240Z,17.80
2018-06-15T06:52:33.149Z,17.90
2018-06-15T06:55:36.053Z,18.00
2018-06-15T06:58:39.037Z,17.90
2018-06-15T07:01:41.961Z,17.90
2018-06-15T07:04:44.320Z,18.00
2018-06-15T07:07:47.300Z,18.00
2018-06-15T07:10:50.224Z,18.00
2018-06-15T07:13:53.183Z,18.00
2018-06-15T07:16:56.081Z,18.20
2018-06-15T07:19:59.673Z,18.30
2018-06-15T07:23:02.598Z,18.40
2018-06-15T07:26:05.597Z,18.50
2018-06-15T07:29:08.482Z,18.70
2018-06-15T07:32:11.487Z,18.80
2018-06-15T07:35:14.393Z,18.90
2018-06-15T07:38:17.291Z,18.90
2018-06-15T07:41:20.194Z,18.90
2018-06-15T07:44:23.093Z,18.90
2018-06-15T07:47:26.033Z,18.70
2018-06-15T07:50:28.939Z,18.70
2018-06-15T07:53:31.885Z,18.60
2018-06-15T07:56:34.788Z,18.60
2018-06-15T07:59:37.732Z,18.50
2018-06-15T08:02:40.642Z,18.40
2018-06-15T08:08:46.460Z,18.20
2018-06-15T08:11:49.355Z,18.20
2018-06-15T08:14:52.343Z,18.40
2018-06-15T08:17:55.369Z,18.50
2018-06-15T08:20:58.328Z,18.40
2018-06-15T08:24:01.257Z,18.50
2018-06-15T08:30:07.227Z,18.50
2018-06-15T08:33:10.393Z,18.60
2018-06-15T08:36:13.333Z,18.80
2018-06-15T08:39:16.269Z,19.10
2018-06-15T08:42:19.194Z,19.10
2018-06-15T08:45:22.106Z,19.20
2018-06-15T08:48:24.987Z,19.10
2018-06-15T08:51:27.909Z,19.10
2018-06-15T08:54:30.812Z,19.10
2018-06-15T08:57:33.761Z,19.20
2018-06-15T09:00:36.653Z,19.20
2018-06-15T09:03:39.597Z,19.20
2018-06-15T09:06:42.533Z,19.10
2018-06-15T09:09:45.434Z,19.00
2018-06-15T09:12:48.363Z,18.90
2018-06-15T09:15:51.284Z,18.80
2018-06-15T09:18:54.174Z,18.90
2018-06-15T09:21:57.101Z,19.90
2018-06-15T09:25:00.043Z,20.30
2018-06-15T09:28:02.942Z,20.50
2018-06-15T09:31:05.853Z,20.70
2018-06-15T09:34:09.249Z,21.00
2018-06-15T09:37:12.208Z,21.10
2018-06-15T09:40:15.156Z,21.10
2018-06-15T09:43:18.072Z,21.00
2018-06-15T09:46:20.990Z,21.20
2018-06-15T09:49:23.870Z,21.10
2018-06-15T09:52:26.815Z,21.00
2018-06-15T09:55:29.762Z,21.10
2018-06-15T09:58:32.715Z,21.20
2018-06-15T10:01:35.645Z,21.00
2018-06-15T10:04:38.566Z,21.00
2018-06-15T10:07:41.505Z,21.00
2018-06-15T10:10:44.419Z,21.00
2018-06-15T10:13:47.368Z,21.00
2018-06-15T10:16:50.321Z,20.90
2018-06-15T10:19:53.225Z,20.90
2018-06-15T10:22:56.175Z,20.90
2018-06-15T10:25:59.054Z,20.80
2018-06-15T10:29:02.086Z,20.90
2018-06-15T10:32:05.279Z,21.10
2018-06-15T10:35:08.217Z,21.20
2018-06-15T10:38:11.125Z,21.30
2018-06-15T10:41:14.083Z,21.40
2018-06-15T10:44:17.003Z,21.60
2018-06-15T10:47:19.905Z,21.60
2018-06-15T10:50:22.830Z,21.70
2018-06-15T10:53:25.718Z,21.80
2018-06-15T10:56:28.638Z,21.90
2018-06-15T10:59:31.549Z,21.70
2018-06-15T11:02:34.443Z,21.60
2018-06-15T11:05:37.341Z,21.30
2018-06-15T11:08:40.268Z,21.10
2018-06-15T11:11:43.165Z,21.20
2018-06-15T11:14:46.133Z,21.10
2018-06-15T11:17:49.078Z,21.10
2018-06-15T11:20:51.984Z,21.30
2018-06-15T11:23:54.915Z,21.50
2018-06-15T11:26:57.837Z,21.80
2018-06-15T11:30:00.751Z,22.10
2018-06-15T11:33:03.670Z,22.10
2018-06-15T11:36:06.597Z,21.70
2018-06-15T11:39:10.384Z,21.60
2018-06-15T11:42:13.333Z,21.80
2018-06-15T11:45:16.252Z,22.00
2018-06-15T11:48:19.146Z,22.10
2018-06-15T11:51:22.042Z,22.40
2018-06-15T11:54:24.987Z,22.40
2018-06-15T11:57:28.047Z,22.40
2018-06-15T12:03:39.427Z,22.60
2018-06-15T12:06:43.128Z,22.80
2018-06-15T12:09:47.203Z,23.00
2018-06-15T12:12:51.685Z,22.70
2018-06-15T12:15:54.902Z,22.50
2018-06-15T12:18:58.275Z,22.30
2018-06-15T12:22:02.904Z,22.20
2018-06-15T12:25:06.155Z,22.30
2018-06-15T12:28:09.236Z,22.70
2018-06-15T12:31:12.904Z,22.80
2018-06-15T12:34:16.054Z,22.90
2018-06-15T12:37:19.106Z,23.00
2018-06-15T12:40:22.948Z,22.90
2018-06-15T12:43:26.835Z,23.00
2018-06-15T12:46:30.904Z,23.00
2018-06-15T12:49:33.819Z,23.20
2018-06-15T12:52:37.041Z,23.20
2018-06-15T12:55:40.208Z,23.20
2018-06-15T12:58:44.407Z,23.40
2018-06-15T13:01:47.757Z,23.10
2018-06-15T13:04:50.808Z,23.30
2018-06-15T13:07:53.918Z,23.50
2018-06-15T13:10:57.389Z,23.70
2018-06-15T13:14:01.273Z,23.80
2018-06-15T13:17:04.755Z,23.90
2018-06-15T13:20:07.959Z,24.00
2018-06-15T13:23:11.368Z,24.20
2018-06-15T13:26:14.677Z,24.20
2018-06-15T13:29:18.115Z,24.00
2018-06-15T13:32:21.940Z,23.60
2018-06-15T13:35:25.105Z,23.30
2018-06-15T13:38:29.631Z,23.60
2018-06-15T13:41:32.679Z,24.00
2018-06-15T13:44:35.933Z,24.40
2018-06-15T13:47:39.806Z,24.40
2018-06-15T13:50:43.350Z,24.50
2018-06-15T13:53:46.786Z,24.80
2018-06-15T13:56:50.474Z,24.50
2018-06-15T13:59:54.088Z,24.60
2018-06-15T14:02:57.444Z,24.90
2018-06-15T14:06:00.866Z,25.10
2018-06-15T14:09:06.523Z,25.20
2018-06-15T14:12:09.859Z,25.00
2018-06-15T14:15:13.658Z,24.40
2018-06-15T14:18:17.244Z,24.20
2018-06-15T14:21:20.190Z,24.50
2018-06-15T14:24:23.585Z,24.80
2018-06-15T14:27:26.603Z,25.00
2018-06-15T14:30:30.252Z,25.20
2018-06-15T14:33:33.641Z,25.00
2018-06-15T14:36:36.756Z,24.50
2018-06-15T14:39:40.884Z,24.20
2018-06-15T14:42:44.887Z,23.70
2018-06-15T14:45:49.547Z,23.40
2018-06-15T14:48:53.792Z,23.20
2018-06-15T14:51:57.054Z,23.20
2018-06-15T14:55:00.750Z,23.70
2018-06-15T14:58:04.184Z,24.20
2018-06-15T15:01:08.673Z,24.70
2018-06-15T15:07:15.829Z,25.10
2018-06-15T15:10:19.975Z,25.40
2018-06-15T15:13:23.934Z,25.20
2018-06-15T15:16:27.128Z,24.80
2018-06-15T15:19:30.604Z,24.40
2018-06-15T15:22:33.662Z,24.20
2018-06-15T15:25:36.874Z,24.10
2018-06-15T15:28:41.041Z,24.00
2018-06-15T15:31:45.365Z,24.10
2018-06-15T15:34:49.743Z,24.00
2018-06-15T15:37:54.264Z,23.80
2018-06-15T15:40:57.361Z,23.60
2018-06-15T15:44:01.239Z,23.60
2018-06-15T15:47:05.386Z,23.60
2018-06-15T15:50:08.990Z,23.80
2018-06-15T15:53:12.857Z,23.80
2018-06-15T15:59:20.117Z,24.00
2018-06-15T16:02:23.436Z,24.10
2018-06-15T16:05:27.139Z,24.00
2018-06-15T16:08:31.501Z,23.80
2018-06-15T16:11:35.140Z,23.70
2018-06-15T16:14:39.375Z,23.50
2018-06-15T16:17:44.477Z,23.50
2018-06-15T16:20:47.948Z,23.40
2018-06-15T16:23:50.839Z,23.30
2018-06-15T16:26:54.364Z,23.20
2018-06-15T16:29:57.686Z,23.20
2018-06-15T16:33:02.265Z,23.20
2018-06-15T16:36:05.184Z,23.20
2018-06-15T16:39:09.334Z,23.10
2018-06-15T16:42:12.837Z,23.10
2018-06-15T16:45:16.643Z,23.10
2018-06-15T16:48:20.409Z,23.00
2018-06-15T16:51:23.617Z,23.10
2018-06-15T16:54:27.028Z,23.10
2018-06-15T16:57:30.021Z,23.10
2018-06-15T17:00:32.917Z,23.00
2018-06-15T17:03:36.173Z,23.00
2018-06-15T17:06:39.345Z,23.00
2018-06-15T17:09:42.352Z,23.00
2018-06-15T17:12:45.257Z,23.10
2018-06-15T17:15:48.164Z,23.00
2018-06-15T17:18:51.085Z,23.00
2018-06-15T17:21:54.145Z,23.00
2018-06-15T17:24:57.033Z,22.80
2018-06-15T17:27:59.921Z,22.70
2018-06-15T17:31:02.833Z,22.80
2018-06-15T17:34:05.944Z,22.80
2018-06-15T17:40:14.404Z,23.00
2018-06-15T17:43:17.494Z,22.90
2018-06-15T17:46:21.029Z,22.90
2018-06-15T17:49:24.019Z,22.80
2018-06-15T17:52:27.535Z,22.70
2018-06-15T17:55:31.116Z,22.70
2018-06-15T17:58:35.118Z,22.60
2018-06-15T18:01:39.349Z,22.50
2018-06-15T18:04:42.457Z,22.50
2018-06-15T18:07:46.135Z,22.40
2018-06-15T18:10:49.659Z,22.40
2018-06-15T18:13:53.090Z,22.40
2018-06-15T18:16:56.553Z,22.30
2018-06-15T18:19:59.924Z,22.20
2018-06-15T18:23:03.002Z,22.20
2018-06-15T18:26:06.253Z,22.20
2018-06-15T18:29:10.240Z,22.20
2018-06-15T18:32:13.552Z,22.10
2018-06-15T18:35:16.577Z,21.90
2018-06-15T18:38:19.956Z,21.80
2018-06-15T18:41:23.938Z,21.80
2018-06-15T18:44:28.145Z,21.80
2018-06-15T18:47:32.123Z,21.80
2018-06-15T18:50:35.129Z,21.80
2018-06-15T18:53:38.483Z,21.60
2018-06-15T18:56:42.684Z,21.70
2018-06-15T18:59:46.267Z,21.70
2018-06-15T19:02:49.392Z,21.50
2018-06-15T19:05:52.681Z,21.40
2018-06-15T19:08:56.441Z,21.30
2018-06-15T19:12:00.063Z,21.40
2018-06-15T19:15:03.716Z,21.30
2018-06-15T19:18:07.531Z,21.20
2018-06-15T19:21:11.039Z,21.20
2018-06-15T19:24:14.011Z,21.20
2018-06-15T19:27:17.746Z,21.20
2018-06-15T19:30:21.573Z,21.20
2018-06-15T19:33:24.502Z,21.10
2018-06-15T19:36:27.560Z,21.10
2018-06-15T19:39:31.065Z,21.10
2018-06-15T19:42:34.249Z,21.00
2018-06-15T19:45:37.844Z,20.90
2018-06-15T19:51:44.186Z,20.90
2018-06-15T19:54:47.729Z,20.90
2018-06-15T19:57:51.493Z,20.80
2018-06-15T20:00:54.603Z,20.80
2018-06-15T20:03:58.487Z,20.90
2018-06-15T20:07:01.764Z,20.80
2018-06-15T20:10:04.776Z,20.80
2018-06-15T20:13:08.512Z,20.90
2018-06-15T20:16:11.662Z,20.80
2018-06-15T20:19:14.946Z,20.80
2018-06-15T20:22:18.280Z,20.70
2018-06-15T20:25:22.402Z,20.60
2018-06-15T20:28:26.298Z,20.60
2018-06-15T20:31:29.477Z,20.70
2018-06-15T20:34:33.495Z,20.60
2018-06-15T20:37:36.668Z,20.60
2018-06-15T20:40:40.406Z,20.60
2018-06-15T20:43:44.809Z,20.60
2018-06-15T20:46:48.017Z,20.50
2018-06-15T20:49:51.066Z,20.50
2018-06-15T20:52:54.062Z,20.60
2018-06-15T20:55:57.129Z,20.50
2018-06-15T20:59:00.081Z,20.50
2018-06-15T21:02:03.881Z,20.40
2018-06-15T21:05:06.850Z,20.40
2018-06-15T21:08:09.750Z,20.40
2018-06-15T21:11:12.665Z,20.50
2018-06-15T21:14:15.573Z,20.50
2018-06-15T21:17:18.757Z,20.50
2018-06-15T21:20:28.346Z,20.40
2018-06-15T21:23:31.260Z,20.30
2018-06-15T21:26:34.200Z,20.40
2018-06-15T21:29:37.103Z,20.30
2018-06-15T21:32:40.410Z,20.30
2018-06-15T21:35:43.402Z,20.30
2018-06-15T21:38:47.328Z,20.30
2018-06-15T21:41:50.521Z,20.30
2018-06-15T21:44:53.465Z,20.30
2018-06-15T21:47:56.593Z,20.30
2018-06-15T21:50:59.543Z,20.50
2018-06-15T21:54:03.037Z,20.50
2018-06-15T21:57:06.435Z,20.40
2018-06-15T22:00:20.906Z,20.30
2018-06-15T22:03:25.132Z,20.20
2018-06-15T22:06:28.454Z,20.20
2018-06-15T22:09:36.989Z,20.30
2018-06-15T22:12:39.923Z,20.30
2018-06-15T22:15:42.877Z,20.20
2018-06-15T22:18:45.793Z,20.20
2018-06-15T22:21:49.420Z,20.20
2018-06-15T22:24:52.481Z,20.10
2018-06-15T22:27:55.540Z,20.10
2018-06-15T22:30:58.500Z,20.10
2018-06-15T22:34:01.449Z,20.10
2018-06-15T22:37:04.457Z,20.00
2018-06-15T22:40:07.401Z,20.10
2018-06-15T22:43:10.369Z,20.10
2018-06-15T22:46:13.324Z,20.00
2018-06-15T22:49:16.289Z,19.80
2018-06-15T22:52:19.233Z,19.80
2018-06-15T22:55:22.182Z,19.90
2018-06-15T22:58:25.128Z,19.90
2018-06-15T23:01:28.121Z,20.10
2018-06-15T23:04:31.066Z,20.20
2018-06-15T23:07:34.037Z,20.30
2018-06-15T23:10:36.989Z,20.30
2018-06-15T23:13:40.033Z,20.10
2018-06-15T23:16:42.977Z,20.20
2018-06-15T23:19:45.948Z,20.20
2018-06-15T23:24:13.480Z,20.10
2018-06-15T23:27:16.887Z,20.20
2018-06-15T23:30:20.472Z,20.10
2018-06-15T23:33:23.452Z,20.10
2018-06-15T23:36:26.400Z,20.10
2018-06-15T23:39:30.784Z,20.00
2018-06-15T23:42:34.893Z,20.10
2018-06-15T23:48:40.825Z,20.20
2018-06-15T23:51:43.767Z,20.10
2018-06-15T23:54:46.755Z,20.00
2018-06-15T23:57:49.807Z,19.90
